createdAt,value
2018-03-01T00:00:21.000Z,22
2018-03-01T00:01:21.000Z,22
2018-03-01T00:02:21.000Z,22
2018-03-01T00:03:21.000Z,22
2018-03-01T00:04:21.000Z,22
2018-03-01T00:05:21.000Z,22
2018-03-01T00:06:21.000Z,22
2018-03-01T00:07:21.000Z,22
2018-03-01T00:08:21.000Z,22
2018-03-01T00:09:21.000Z,22
2018-03-01T00:10:21.000Z,22
2018-03-01T00:11:21.000Z,22
2018-03-01T00:12:21.000Z,22
2018-03-01T00:13:21.000Z,22
2018-03-01T00:14:21.000Z,22
2018-03-01T00:15:21.000Z,22
2018-03-01T00:16:21.000Z,22
2018-03-01T00:17:21.000Z,22
2018-03-01T00:18:21.000Z,22
2018-03-01T00:19:21.000Z,22
2018-03-01T00:20:21.000Z,22
2018-03-01T00:21:21.000Z,22
2018-03-01T00:23:21.000Z,22
2018-03-01T00:24:21.000Z,22
2018-03-01T00:26:21.000Z,22
2018-03-01T00:27:21.000Z,22
2018-03-01T00:28:21.000Z,22
2018-03-01T00:29:21.000Z,22
2018-03-01T00:30:21.000Z,22
2018-03-01T00:32:21.000Z,22
2018-03-01T00:33:21.000Z,22
2018-03-01T00:34:21.000Z,22
2018-03-01T00:35:21.000Z,22
2018-03-01T00:36:21.000Z,22
2018-03-01T00:37:21.000Z,22
2018-03-01T00:38:21.000Z,22
2018-03-01T00:39:21.000Z,22
2018-03-01T00:41:21.000Z,22
2018-03-01T00:42:21.000Z,22
2018-03-01T00:43:21.000Z,22
2018-03-01T00:44:21.000Z,22
2018-03-01T00:46:21.000Z,22
2018-03-01T00:47:21.000Z,22
2018-03-01T00:48:21.000Z,22
2018-03-01T00:49:21.000Z,22
2018-03-01T00:50:21.000Z,22
2018-03-01T00:51:21.000Z,22
2018-03-01T00:52:21.000Z,22
2018-03-01T00:53:21.000Z,22
2018-03-01T00:54:21.000Z,22
2018-03-01T00:55:21.000Z,22
2018-03-01T00:56:21.000Z,22
2018-03-01T00:57:22.000Z,22
2018-03-01T00:59:22.000Z,21
2018-03-01T01:00:22.000Z,22
2018-03-01T01:01:22.000Z,22
2018-03-01T01:02:22.000Z,22
2018-03-01T01:03:22.000Z,22
2018-03-01T01:04:22.000Z,22
2018-03-01T01:05:22.000Z,22
2018-03-01T01:06:22.000Z,22
2018-03-01T01:07:22.000Z,22
2018-03-01T01:08:22.000Z,22
2018-03-01T01:09:22.000Z,22
2018-03-01T01:10:22.000Z,22
2018-03-01T01:11:22.000Z,22
2018-03-01T01:12:22.000Z,22
2018-03-01T01:13:22.000Z,22
2018-03-01T01:14:22.000Z,22
2018-03-01T01:15:22.000Z,22
2018-03-01T01:16:22.000Z,22
2018-03-01T01:17:22.000Z,22
2018-03-01T01:18:22.000Z,22
2018-03-01T01:19:22.000Z,21
2018-03-01T01:20:22.000Z,22
2018-03-01T01:22:22.000Z,21
2018-03-01T01:23:22.000Z,22
2018-03-01T01:24:22.000Z,22
2018-03-01T01:25:22.000Z,22
2018-03-01T01:26:22.000Z,21
2018-03-01T01:27:22.000Z,22
2018-03-01T01:28:22.000Z,22
2018-03-01T01:29:22.000Z,21
2018-03-01T01:30:22.000Z,22
2018-03-01T01:32:22.000Z,21
2018-03-01T01:33:22.000Z,21
2018-03-01T01:34:22.000Z,21
2018-03-01T01:35:22.000Z,21
2018-03-01T01:36:22.000Z,21
2018-03-01T01:37:22.000Z,21
2018-03-01T01:38:22.000Z,21
2018-03-01T01:39:22.000Z,21
2018-03-01T01:40:22.000Z,21
2018-03-01T01:42:22.000Z,21
2018-03-01T01:43:22.000Z,21
2018-03-01T01:44:22.000Z,22
2018-03-01T01:45:22.000Z,21
2018-03-01T01:46:22.000Z,21
2018-03-01T01:47:22.000Z,21
2018-03-01T01:48:22.000Z,21
2018-03-01T01:49:22.000Z,21
2018-03-01T01:50:22.000Z,21
2018-03-01T01:51:22.000Z,22
2018-03-01T01:52:22.000Z,22
2018-03-01T01:53:22.000Z,21
2018-03-01T01:54:22.000Z,21
2018-03-01T01:55:22.000Z,21
2018-03-01T01:57:22.000Z,21
2018-03-01T01:58:22.000Z,21
2018-03-01T01:59:22.000Z,21
2018-03-01T02:00:22.000Z,21
2018-03-01T02:01:21.000Z,21
2018-03-01T02:02:21.000Z,21
2018-03-01T02:03:21.000Z,21
2018-03-01T02:04:21.000Z,21
2018-03-01T02:05:21.000Z,22
2018-03-01T02:06:21.000Z,22
2018-03-01T02:07:21.000Z,21
2018-03-01T02:09:21.000Z,21
2018-03-01T02:10:21.000Z,21
2018-03-01T02:11:21.000Z,21
2018-03-01T02:12:21.000Z,21
2018-03-01T02:13:21.000Z,21
2018-03-01T02:14:21.000Z,21
2018-03-01T02:16:21.000Z,21
2018-03-01T02:17:21.000Z,22
2018-03-01T02:18:21.000Z,21
2018-03-01T02:19:21.000Z,22
2018-03-01T02:20:21.000Z,21
2018-03-01T02:21:21.000Z,22
2018-03-01T02:22:21.000Z,22
2018-03-01T02:23:21.000Z,22
2018-03-01T02:24:21.000Z,22
2018-03-01T02:26:21.000Z,21
2018-03-01T02:27:21.000Z,22
2018-03-01T02:28:21.000Z,21
2018-03-01T02:29:21.000Z,22
2018-03-01T02:30:21.000Z,21
2018-03-01T02:31:21.000Z,22
2018-03-01T02:32:21.000Z,21
2018-03-01T02:33:21.000Z,22
2018-03-01T02:34:21.000Z,22
2018-03-01T02:35:21.000Z,21
2018-03-01T02:36:21.000Z,22
2018-03-01T02:38:21.000Z,21
2018-03-01T02:39:21.000Z,21
2018-03-01T02:40:21.000Z,22
2018-03-01T02:41:21.000Z,21
2018-03-01T02:42:21.000Z,21
2018-03-01T02:43:21.000Z,21
2018-03-01T02:44:21.000Z,21
2018-03-01T02:46:21.000Z,21
2018-03-01T02:47:21.000Z,21
2018-03-01T02:48:21.000Z,21
2018-03-01T02:49:21.000Z,21
2018-03-01T02:50:21.000Z,21
2018-03-01T02:52:21.000Z,21
2018-03-01T02:53:21.000Z,21
2018-03-01T02:54:21.000Z,22
2018-03-01T02:55:21.000Z,21
2018-03-01T02:56:21.000Z,21
2018-03-01T02:57:21.000Z,21
2018-03-01T02:58:21.000Z,21
2018-03-01T02:59:21.000Z,21
2018-03-01T03:00:21.000Z,21
2018-03-01T03:01:21.000Z,21
2018-03-01T03:02:21.000Z,21
2018-03-01T03:03:21.000Z,21
2018-03-01T03:04:21.000Z,21
2018-03-01T03:05:21.000Z,21
2018-03-01T03:06:21.000Z,21
2018-03-01T03:07:21.000Z,21
2018-03-01T03:09:21.000Z,21
2018-03-01T03:11:21.000Z,21
2018-03-01T03:13:21.000Z,21
2018-03-01T03:14:21.000Z,21
2018-03-01T03:15:21.000Z,21
2018-03-01T03:16:21.000Z,21
2018-03-01T03:18:21.000Z,21
2018-03-01T03:19:21.000Z,22
2018-03-01T03:20:21.000Z,22
2018-03-01T03:21:21.000Z,22
2018-03-01T03:22:21.000Z,22
2018-03-01T03:23:21.000Z,22
2018-03-01T03:24:21.000Z,21
2018-03-01T03:25:21.000Z,21
2018-03-01T03:27:21.000Z,21
2018-03-01T03:29:21.000Z,21
2018-03-01T03:30:21.000Z,21
2018-03-01T03:31:21.000Z,21
2018-03-01T03:32:21.000Z,21
2018-03-01T03:33:21.000Z,22
2018-03-01T03:34:21.000Z,21
2018-03-01T03:35:21.000Z,21
2018-03-01T03:37:21.000Z,21
2018-03-01T03:38:21.000Z,21
2018-03-01T03:39:21.000Z,21
2018-03-01T03:40:21.000Z,21
2018-03-01T03:41:21.000Z,21
2018-03-01T03:42:21.000Z,21
2018-03-01T03:43:21.000Z,21
2018-03-01T03:44:21.000Z,21
2018-03-01T03:45:21.000Z,21
2018-03-01T03:46:21.000Z,21
2018-03-01T03:47:21.000Z,21
2018-03-01T03:48:21.000Z,21
2018-03-01T03:49:21.000Z,21
2018-03-01T03:50:21.000Z,21
2018-03-01T03:51:21.000Z,21
2018-03-01T03:52:21.000Z,21
2018-03-01T03:53:21.000Z,21
2018-03-01T03:54:21.000Z,21
2018-03-01T03:55:21.000Z,21
2018-03-01T03:56:21.000Z,21
2018-03-01T03:57:21.000Z,21
2018-03-01T03:58:21.000Z,21
2018-03-01T03:59:21.000Z,21
2018-03-01T04:00:21.000Z,21
2018-03-01T04:01:21.000Z,21
2018-03-01T04:02:21.000Z,21
2018-03-01T04:03:21.000Z,21
2018-03-01T04:04:21.000Z,21
2018-03-01T04:05:21.000Z,21
2018-03-01T04:06:21.000Z,21
2018-03-01T04:07:21.000Z,21
2018-03-01T04:08:22.000Z,21
2018-03-01T04:09:22.000Z,21
2018-03-01T04:10:22.000Z,21
2018-03-01T04:12:22.000Z,21
2018-03-01T04:13:22.000Z,21
2018-03-01T04:14:22.000Z,21
2018-03-01T04:15:22.000Z,21
2018-03-01T04:16:22.000Z,21
2018-03-01T04:17:22.000Z,21
2018-03-01T04:18:22.000Z,21
2018-03-01T04:20:22.000Z,21
2018-03-01T04:21:22.000Z,21
2018-03-01T04:22:22.000Z,21
2018-03-01T04:23:22.000Z,21
2018-03-01T04:24:22.000Z,21
2018-03-01T04:25:22.000Z,21
2018-03-01T04:26:22.000Z,21
2018-03-01T04:27:22.000Z,21
2018-03-01T04:28:22.000Z,21
2018-03-01T04:29:22.000Z,21
2018-03-01T04:30:22.000Z,21
2018-03-01T04:31:22.000Z,21
2018-03-01T04:32:22.000Z,21
2018-03-01T04:33:22.000Z,21
2018-03-01T04:34:22.000Z,21
2018-03-01T04:35:22.000Z,21
2018-03-01T04:36:22.000Z,21
2018-03-01T04:37:22.000Z,21
2018-03-01T04:38:22.000Z,21
2018-03-01T04:39:22.000Z,21
2018-03-01T04:40:22.000Z,21
2018-03-01T04:41:22.000Z,21
2018-03-01T04:42:22.000Z,21
2018-03-01T04:43:22.000Z,21
2018-03-01T04:44:22.000Z,22
2018-03-01T04:45:22.000Z,22
2018-03-01T04:46:22.000Z,23
2018-03-01T04:47:22.000Z,23
2018-03-01T04:48:22.000Z,23
2018-03-01T04:49:22.000Z,23
2018-03-01T04:50:22.000Z,23
2018-03-01T04:51:22.000Z,23
2018-03-01T04:52:22.000Z,23
2018-03-01T04:53:22.000Z,23
2018-03-01T04:54:22.000Z,23
2018-03-01T04:55:22.000Z,23
2018-03-01T04:56:22.000Z,23
2018-03-01T04:57:22.000Z,23
2018-03-01T04:58:22.000Z,23
2018-03-01T04:59:22.000Z,23
2018-03-01T05:00:22.000Z,23
2018-03-01T05:01:22.000Z,22
2018-03-01T05:02:22.000Z,22
2018-03-01T05:03:22.000Z,22
2018-03-01T05:04:22.000Z,22
2018-03-01T05:05:22.000Z,22
2018-03-01T05:06:22.000Z,22
2018-03-01T05:07:22.000Z,22
2018-03-01T05:08:22.000Z,22
2018-03-01T05:09:22.000Z,22
2018-03-01T05:10:22.000Z,23
2018-03-01T05:11:22.000Z,23
2018-03-01T05:12:22.000Z,23
2018-03-01T05:13:22.000Z,24
2018-03-01T05:14:22.000Z,24
2018-03-01T05:15:22.000Z,24
2018-03-01T05:16:22.000Z,24
2018-03-01T05:18:22.000Z,24
2018-03-01T05:19:22.000Z,24
2018-03-01T05:20:22.000Z,25
2018-03-01T05:21:22.000Z,25
2018-03-01T05:22:22.000Z,25
2018-03-01T05:23:22.000Z,25
2018-03-01T05:24:22.000Z,25
2018-03-01T05:25:22.000Z,25
2018-03-01T05:26:22.000Z,25
2018-03-01T05:27:22.000Z,25
2018-03-01T05:28:22.000Z,25
2018-03-01T05:29:22.000Z,25
2018-03-01T05:30:22.000Z,25
2018-03-01T05:31:22.000Z,25
2018-03-01T05:32:22.000Z,25
2018-03-01T05:33:22.000Z,25
2018-03-01T05:34:22.000Z,25
2018-03-01T05:36:22.000Z,25
2018-03-01T05:37:22.000Z,25
2018-03-01T05:38:22.000Z,26
2018-03-01T05:39:22.000Z,25
2018-03-01T05:40:22.000Z,26
2018-03-01T05:41:22.000Z,26
2018-03-01T05:43:22.000Z,26
2018-03-01T05:44:22.000Z,26
2018-03-01T05:45:22.000Z,26
2018-03-01T05:46:22.000Z,26
2018-03-01T05:47:22.000Z,26
2018-03-01T05:48:22.000Z,26
2018-03-01T05:49:22.000Z,26
2018-03-01T05:51:22.000Z,26
2018-03-01T05:52:22.000Z,26
2018-03-01T05:53:22.000Z,26
2018-03-01T05:55:22.000Z,26
2018-03-01T05:56:22.000Z,26
2018-03-01T05:57:22.000Z,26
2018-03-01T05:58:22.000Z,26
2018-03-01T05:59:22.000Z,26
2018-03-01T06:00:22.000Z,26
2018-03-01T06:02:22.000Z,25
2018-03-01T06:03:22.000Z,25
2018-03-01T06:04:22.000Z,26
2018-03-01T06:05:22.000Z,25
2018-03-01T06:07:22.000Z,25
2018-03-01T06:08:22.000Z,25
2018-03-01T06:09:22.000Z,25
2018-03-01T06:10:22.000Z,25
2018-03-01T06:11:22.000Z,25
2018-03-01T06:12:22.000Z,25
2018-03-01T06:13:22.000Z,25
2018-03-01T06:15:22.000Z,25
2018-03-01T06:17:22.000Z,25
2018-03-01T06:18:22.000Z,25
2018-03-01T06:19:22.000Z,25
2018-03-01T06:20:22.000Z,25
2018-03-01T06:21:22.000Z,25
2018-03-01T06:22:22.000Z,25
2018-03-01T06:24:22.000Z,25
2018-03-01T06:25:22.000Z,25
2018-03-01T06:26:22.000Z,25
2018-03-01T06:27:22.000Z,25
2018-03-01T06:28:22.000Z,25
2018-03-01T06:29:22.000Z,25
2018-03-01T06:30:22.000Z,25
2018-03-01T06:31:22.000Z,25
2018-03-01T06:32:22.000Z,25
2018-03-01T06:33:22.000Z,25
2018-03-01T06:34:22.000Z,24
2018-03-01T06:35:22.000Z,25
2018-03-01T06:36:22.000Z,24
2018-03-01T06:38:22.000Z,24
2018-03-01T06:39:22.000Z,24
2018-03-01T06:40:22.000Z,24
2018-03-01T06:42:22.000Z,24
2018-03-01T06:43:22.000Z,24
2018-03-01T06:44:22.000Z,24
2018-03-01T06:45:22.000Z,24
2018-03-01T06:46:22.000Z,24
2018-03-01T06:48:22.000Z,24
2018-03-01T06:50:22.000Z,24
2018-03-01T06:52:22.000Z,24
2018-03-01T06:53:22.000Z,24
2018-03-01T06:54:22.000Z,24
2018-03-01T06:55:22.000Z,24
2018-03-01T06:57:22.000Z,24
2018-03-01T06:59:22.000Z,24
2018-03-01T07:00:22.000Z,24
2018-03-01T07:01:22.000Z,24
2018-03-01T07:02:22.000Z,24
2018-03-01T07:03:22.000Z,24
2018-03-01T07:04:22.000Z,24
2018-03-01T07:05:22.000Z,24
2018-03-01T07:06:22.000Z,24
2018-03-01T07:07:22.000Z,24
2018-03-01T07:08:22.000Z,24
2018-03-01T07:09:22.000Z,24
2018-03-01T07:10:22.000Z,24
2018-03-01T07:11:22.000Z,24
2018-03-01T07:12:22.000Z,24
2018-03-01T07:13:22.000Z,24
2018-03-01T07:14:22.000Z,24
2018-03-01T07:15:22.000Z,24
2018-03-01T07:16:22.000Z,24
2018-03-01T07:17:22.000Z,24
2018-03-01T07:18:22.000Z,24
2018-03-01T07:19:22.000Z,24
2018-03-01T07:20:22.000Z,24
2018-03-01T07:21:22.000Z,24
2018-03-01T07:23:22.000Z,24
2018-03-01T07:24:22.000Z,24
2018-03-01T07:25:22.000Z,24
2018-03-01T07:26:22.000Z,24
2018-03-01T07:27:22.000Z,24
2018-03-01T07:28:22.000Z,24
2018-03-01T07:29:22.000Z,24
2018-03-01T07:30:22.000Z,24
2018-03-01T07:32:22.000Z,24
2018-03-01T07:33:22.000Z,24
2018-03-01T07:34:22.000Z,24
2018-03-01T07:35:22.000Z,24
2018-03-01T07:36:22.000Z,24
2018-03-01T07:37:22.000Z,25
2018-03-01T07:39:22.000Z,24
2018-03-01T07:40:22.000Z,25
2018-03-01T07:41:22.000Z,25
2018-03-01T07:42:22.000Z,24
2018-03-01T07:43:22.000Z,25
2018-03-01T07:44:22.000Z,24
2018-03-01T07:45:22.000Z,24
2018-03-01T07:46:22.000Z,24
2018-03-01T07:47:22.000Z,24
2018-03-01T07:48:22.000Z,24
2018-03-01T07:49:22.000Z,24
2018-03-01T07:51:22.000Z,24
2018-03-01T07:52:22.000Z,24
2018-03-01T07:54:22.000Z,24
2018-03-01T07:55:22.000Z,24
2018-03-01T07:56:22.000Z,24
2018-03-01T07:58:22.000Z,24
2018-03-01T08:00:22.000Z,24
2018-03-01T08:01:22.000Z,24
2018-03-01T08:02:22.000Z,24
2018-03-01T08:03:22.000Z,24
2018-03-01T08:04:22.000Z,24
2018-03-01T08:05:22.000Z,24
2018-03-01T08:06:22.000Z,24
2018-03-01T08:07:22.000Z,24
2018-03-01T08:08:22.000Z,24
2018-03-01T08:09:22.000Z,24
2018-03-01T08:10:22.000Z,24
2018-03-01T08:11:22.000Z,24
2018-03-01T08:12:22.000Z,24
2018-03-01T08:13:22.000Z,24
2018-03-01T08:14:22.000Z,24
2018-03-01T08:15:22.000Z,24
2018-03-01T08:16:22.000Z,24
2018-03-01T08:17:22.000Z,24
2018-03-01T08:18:22.000Z,24
2018-03-01T08:19:22.000Z,24
2018-03-01T08:20:22.000Z,24
2018-03-01T08:21:22.000Z,23
2018-03-01T08:22:22.000Z,23
2018-03-01T08:23:22.000Z,23
2018-03-01T08:25:22.000Z,23
2018-03-01T08:27:22.000Z,23
2018-03-01T08:29:22.000Z,23
2018-03-01T08:30:22.000Z,23
2018-03-01T08:31:22.000Z,23
2018-03-01T08:32:22.000Z,23
2018-03-01T08:33:22.000Z,23
2018-03-01T08:34:22.000Z,23
2018-03-01T08:36:22.000Z,23
2018-03-01T08:37:22.000Z,23
2018-03-01T08:39:22.000Z,23
2018-03-01T08:40:22.000Z,23
2018-03-01T08:41:22.000Z,23
2018-03-01T08:42:22.000Z,23
2018-03-01T08:43:22.000Z,23
2018-03-01T08:44:22.000Z,23
2018-03-01T08:46:22.000Z,23
2018-03-01T08:47:22.000Z,23
2018-03-01T08:48:22.000Z,23
2018-03-01T08:49:22.000Z,23
2018-03-01T08:50:22.000Z,23
2018-03-01T08:51:22.000Z,23
2018-03-01T08:52:22.000Z,23
2018-03-01T08:53:22.000Z,23
2018-03-01T08:54:22.000Z,23
2018-03-01T08:55:22.000Z,23
2018-03-01T08:56:22.000Z,24
2018-03-01T08:58:22.000Z,24
2018-03-01T08:59:22.000Z,24
2018-03-01T09:00:22.000Z,24
2018-03-01T09:01:22.000Z,24
2018-03-01T09:02:22.000Z,24
2018-03-01T09:03:22.000Z,24
2018-03-01T09:04:22.000Z,24
2018-03-01T09:05:22.000Z,24
2018-03-01T09:06:22.000Z,24
2018-03-01T09:07:22.000Z,24
2018-03-01T09:08:22.000Z,24
2018-03-01T09:09:22.000Z,24
2018-03-01T09:10:22.000Z,24
2018-03-01T09:11:22.000Z,24
2018-03-01T09:13:22.000Z,24
2018-03-01T09:14:22.000Z,24
2018-03-01T09:15:22.000Z,24
2018-03-01T09:16:22.000Z,24
2018-03-01T09:17:22.000Z,24
2018-03-01T09:18:22.000Z,24
2018-03-01T09:19:22.000Z,24
2018-03-01T09:20:22.000Z,24
2018-03-01T09:21:22.000Z,24
2018-03-01T09:22:22.000Z,24
2018-03-01T09:23:22.000Z,24
2018-03-01T09:24:22.000Z,24
2018-03-01T09:25:22.000Z,24
2018-03-01T09:26:22.000Z,24
2018-03-01T09:27:22.000Z,24
2018-03-01T09:28:22.000Z,24
2018-03-01T09:29:22.000Z,24
2018-03-01T09:30:22.000Z,24
2018-03-01T09:31:22.000Z,24
2018-03-01T09:32:22.000Z,24
2018-03-01T09:33:22.000Z,25
2018-03-01T09:34:22.000Z,24
2018-03-01T09:35:22.000Z,25
2018-03-01T09:36:22.000Z,24
2018-03-01T09:37:22.000Z,25
2018-03-01T09:38:22.000Z,25
2018-03-01T09:39:22.000Z,25
2018-03-01T09:40:22.000Z,25
2018-03-01T09:41:22.000Z,25
2018-03-01T09:42:22.000Z,25
2018-03-01T09:43:22.000Z,25
2018-03-01T09:44:22.000Z,25
2018-03-01T09:45:22.000Z,25
2018-03-01T09:46:22.000Z,25
2018-03-01T09:47:22.000Z,25
2018-03-01T09:48:22.000Z,25
2018-03-01T09:49:22.000Z,25
2018-03-01T09:50:22.000Z,25
2018-03-01T09:51:22.000Z,25
2018-03-01T09:52:22.000Z,25
2018-03-01T09:53:22.000Z,25
2018-03-01T09:54:22.000Z,25
2018-03-01T09:55:22.000Z,25
2018-03-01T09:56:22.000Z,25
2018-03-01T09:57:22.000Z,25
2018-03-01T09:58:22.000Z,25
2018-03-01T09:59:22.000Z,25
2018-03-01T10:00:22.000Z,25
2018-03-01T10:01:22.000Z,25
2018-03-01T10:02:22.000Z,25
2018-03-01T10:03:22.000Z,25
2018-03-01T10:05:22.000Z,25
2018-03-01T10:06:22.000Z,25
2018-03-01T10:07:22.000Z,25
2018-03-01T10:08:22.000Z,25
2018-03-01T10:09:22.000Z,25
2018-03-01T10:10:22.000Z,25
2018-03-01T10:11:22.000Z,25
2018-03-01T10:12:22.000Z,25
2018-03-01T10:14:22.000Z,25
2018-03-01T10:15:22.000Z,25
2018-03-01T10:16:22.000Z,25
2018-03-01T10:18:22.000Z,25
2018-03-01T10:19:22.000Z,25
2018-03-01T10:20:22.000Z,25
2018-03-01T10:21:22.000Z,25
2018-03-01T10:22:22.000Z,25
2018-03-01T10:24:22.000Z,25
2018-03-01T10:25:22.000Z,25
2018-03-01T10:26:22.000Z,25
2018-03-01T10:27:22.000Z,25
2018-03-01T10:28:22.000Z,25
2018-03-01T10:29:22.000Z,25
2018-03-01T10:30:22.000Z,25
2018-03-01T10:32:22.000Z,25
2018-03-01T10:33:22.000Z,25
2018-03-01T10:34:22.000Z,25
2018-03-01T10:35:22.000Z,25
2018-03-01T10:37:22.000Z,25
2018-03-01T10:38:22.000Z,25
2018-03-01T10:39:22.000Z,25
2018-03-01T10:40:22.000Z,25
2018-03-01T10:41:22.000Z,25
2018-03-01T10:42:22.000Z,25
2018-03-01T10:43:22.000Z,25
2018-03-01T10:44:22.000Z,25
2018-03-01T10:46:22.000Z,25
2018-03-01T10:47:22.000Z,25
2018-03-01T10:48:22.000Z,25
2018-03-01T10:49:22.000Z,25
2018-03-01T10:50:22.000Z,25
2018-03-01T10:51:22.000Z,25
2018-03-01T10:52:22.000Z,25
2018-03-01T10:53:22.000Z,25
2018-03-01T10:54:22.000Z,25
2018-03-01T10:55:22.000Z,25
2018-03-01T10:56:22.000Z,25
2018-03-01T10:57:22.000Z,25
2018-03-01T10:58:22.000Z,25
2018-03-01T10:59:22.000Z,25
2018-03-01T11:00:22.000Z,25
2018-03-01T11:01:22.000Z,25
2018-03-01T11:02:22.000Z,25
2018-03-01T11:03:22.000Z,25
2018-03-01T11:04:22.000Z,25
2018-03-01T11:05:22.000Z,25
2018-03-01T11:06:22.000Z,25
2018-03-01T11:07:22.000Z,25
2018-03-01T11:08:22.000Z,25
2018-03-01T11:09:22.000Z,25
2018-03-01T11:10:22.000Z,25
2018-03-01T11:11:22.000Z,25
2018-03-01T11:12:22.000Z,25
2018-03-01T11:13:22.000Z,25
2018-03-01T11:14:22.000Z,25
2018-03-01T11:15:22.000Z,25
2018-03-01T11:16:22.000Z,25
2018-03-01T11:17:22.000Z,25
2018-03-01T11:18:22.000Z,25
2018-03-01T11:19:22.000Z,25
2018-03-01T11:20:22.000Z,25
2018-03-01T11:21:22.000Z,24
2018-03-01T11:22:22.000Z,24
2018-03-01T11:23:22.000Z,23
2018-03-01T11:24:22.000Z,23
2018-03-01T11:26:22.000Z,22
2018-03-01T11:27:22.000Z,22
2018-03-01T11:28:22.000Z,22
2018-03-01T11:29:22.000Z,21
2018-03-01T11:30:22.000Z,21
2018-03-01T11:31:22.000Z,21
2018-03-01T11:32:22.000Z,21
2018-03-01T11:33:22.000Z,20
2018-03-01T11:34:22.000Z,20
2018-03-01T11:35:22.000Z,20
2018-03-01T11:36:22.000Z,20
2018-03-01T11:37:22.000Z,21
2018-03-01T11:38:22.000Z,21
2018-03-01T11:39:22.000Z,21
2018-03-01T11:40:22.000Z,21
2018-03-01T11:41:22.000Z,22
2018-03-01T11:42:22.000Z,22
2018-03-01T11:44:22.000Z,22
2018-03-01T11:45:22.000Z,22
2018-03-01T11:46:22.000Z,23
2018-03-01T11:47:22.000Z,23
2018-03-01T11:49:22.000Z,23
2018-03-01T11:50:22.000Z,23
2018-03-01T11:51:22.000Z,23
2018-03-01T11:52:22.000Z,23
2018-03-01T11:53:22.000Z,23
2018-03-01T11:54:22.000Z,23
2018-03-01T11:55:22.000Z,23
2018-03-01T11:56:22.000Z,23
2018-03-01T11:57:22.000Z,24
2018-03-01T11:58:22.000Z,23
2018-03-01T11:59:22.000Z,24
2018-03-01T12:00:22.000Z,24
2018-03-01T12:01:22.000Z,24
2018-03-01T12:03:22.000Z,24
2018-03-01T12:04:22.000Z,24
2018-03-01T12:05:22.000Z,24
2018-03-01T12:06:22.000Z,24
2018-03-01T12:07:22.000Z,24
2018-03-01T12:09:22.000Z,24
2018-03-01T12:10:22.000Z,24
2018-03-01T12:11:22.000Z,23
2018-03-01T12:12:22.000Z,23
2018-03-01T12:13:22.000Z,22
2018-03-01T12:14:22.000Z,21
2018-03-01T12:15:22.000Z,21
2018-03-01T12:16:22.000Z,20
2018-03-01T12:17:22.000Z,20
2018-03-01T12:18:22.000Z,20
2018-03-01T12:19:22.000Z,20
2018-03-01T12:20:22.000Z,19
2018-03-01T12:21:22.000Z,19
2018-03-01T12:22:22.000Z,19
2018-03-01T12:23:22.000Z,19
2018-03-01T12:24:22.000Z,18
2018-03-01T12:25:22.000Z,18
2018-03-01T12:26:22.000Z,18
2018-03-01T12:27:22.000Z,18
2018-03-01T12:28:22.000Z,18
2018-03-01T12:29:22.000Z,18
2018-03-01T12:31:22.000Z,17
2018-03-01T12:32:22.000Z,18
2018-03-01T12:34:22.000Z,18
2018-03-01T12:35:22.000Z,18
2018-03-01T12:36:22.000Z,18
2018-03-01T12:38:22.000Z,18
2018-03-01T12:39:22.000Z,18
2018-03-01T12:40:22.000Z,18
2018-03-01T12:41:22.000Z,18
2018-03-01T12:42:22.000Z,18
2018-03-01T12:43:22.000Z,18
2018-03-01T12:44:22.000Z,19
2018-03-01T12:45:22.000Z,19
2018-03-01T12:46:22.000Z,19
2018-03-01T12:48:22.000Z,19
2018-03-01T12:49:22.000Z,19
2018-03-01T12:50:22.000Z,19
2018-03-01T12:51:22.000Z,19
2018-03-01T12:52:22.000Z,19
2018-03-01T12:53:22.000Z,19
2018-03-01T12:54:22.000Z,18
2018-03-01T12:55:22.000Z,18
2018-03-01T12:56:22.000Z,17
2018-03-01T12:57:22.000Z,17
2018-03-01T12:58:22.000Z,17
2018-03-01T12:59:22.000Z,16
2018-03-01T13:00:22.000Z,16
2018-03-01T13:01:22.000Z,16
2018-03-01T13:02:22.000Z,16
2018-03-01T13:03:22.000Z,17
2018-03-01T13:04:22.000Z,16
2018-03-01T13:05:22.000Z,17
2018-03-01T13:06:22.000Z,17
2018-03-01T13:07:22.000Z,17
2018-03-01T13:08:22.000Z,17
2018-03-01T13:09:22.000Z,17
2018-03-01T13:10:22.000Z,17
2018-03-01T13:11:22.000Z,17
2018-03-01T13:13:22.000Z,17
2018-03-01T13:14:22.000Z,17
2018-03-01T13:15:22.000Z,16
2018-03-01T13:17:22.000Z,16
2018-03-01T13:18:22.000Z,16
2018-03-01T13:19:22.000Z,16
2018-03-01T13:20:22.000Z,16
2018-03-01T13:21:22.000Z,16
2018-03-01T13:22:22.000Z,16
2018-03-01T13:23:22.000Z,16
2018-03-01T13:24:22.000Z,16
2018-03-01T13:25:22.000Z,16
2018-03-01T13:26:22.000Z,16
2018-03-01T13:27:22.000Z,16
2018-03-01T13:29:22.000Z,16
2018-03-01T13:30:22.000Z,16
2018-03-01T13:31:22.000Z,16
2018-03-01T13:32:22.000Z,16
2018-03-01T13:33:22.000Z,16
2018-03-01T13:35:22.000Z,16
2018-03-01T13:37:22.000Z,16
2018-03-01T13:38:22.000Z,16
2018-03-01T13:39:22.000Z,16
2018-03-01T13:40:22.000Z,17
2018-03-01T13:42:22.000Z,17
2018-03-01T13:43:22.000Z,17
2018-03-01T13:44:22.000Z,17
2018-03-01T13:45:22.000Z,17
2018-03-01T13:47:22.000Z,17
2018-03-01T13:48:22.000Z,17
2018-03-01T13:49:22.000Z,17
2018-03-01T13:50:22.000Z,17
2018-03-01T13:51:22.000Z,18
2018-03-01T13:52:22.000Z,17
2018-03-01T13:53:22.000Z,18
2018-03-01T13:54:22.000Z,18
2018-03-01T13:55:22.000Z,18
2018-03-01T13:56:22.000Z,18
2018-03-01T13:57:22.000Z,18
2018-03-01T13:58:22.000Z,18
2018-03-01T13:59:22.000Z,18
2018-03-01T14:00:22.000Z,18
2018-03-01T14:01:22.000Z,18
2018-03-01T14:02:22.000Z,18
2018-03-01T14:03:22.000Z,18
2018-03-01T14:04:22.000Z,18
2018-03-01T14:05:22.000Z,18
2018-03-01T14:07:22.000Z,18
2018-03-01T14:08:22.000Z,18
2018-03-01T14:09:22.000Z,18
2018-03-01T14:10:22.000Z,18
2018-03-01T14:11:22.000Z,18
2018-03-01T14:12:22.000Z,18
2018-03-01T14:13:22.000Z,17
2018-03-01T14:14:22.000Z,17
2018-03-01T14:16:22.000Z,17
2018-03-01T14:17:22.000Z,16
2018-03-01T14:18:22.000Z,16
2018-03-01T14:19:22.000Z,16
2018-03-01T14:20:22.000Z,16
2018-03-01T14:21:22.000Z,16
2018-03-01T14:22:22.000Z,16
2018-03-01T14:23:22.000Z,16
2018-03-01T14:25:22.000Z,15
2018-03-01T14:26:22.000Z,15
2018-03-01T14:27:22.000Z,15
2018-03-01T14:28:22.000Z,15
2018-03-01T14:29:22.000Z,15
2018-03-01T14:30:22.000Z,15
2018-03-01T14:31:22.000Z,15
2018-03-01T14:32:22.000Z,15
2018-03-01T14:33:22.000Z,15
2018-03-01T14:34:22.000Z,15
2018-03-01T14:35:22.000Z,15
2018-03-01T14:36:22.000Z,15
2018-03-01T14:38:22.000Z,15
2018-03-01T14:39:22.000Z,15
2018-03-01T14:40:22.000Z,15
2018-03-01T14:41:22.000Z,15
2018-03-01T14:42:22.000Z,15
2018-03-01T14:43:22.000Z,14
2018-03-01T14:44:22.000Z,15
2018-03-01T14:45:21.000Z,14
2018-03-01T14:46:21.000Z,15
2018-03-01T14:47:21.000Z,15
2018-03-01T14:49:21.000Z,14
2018-03-01T14:50:21.000Z,14
2018-03-01T14:51:21.000Z,14
2018-03-01T14:52:21.000Z,14
2018-03-01T14:53:21.000Z,14
2018-03-01T14:54:21.000Z,14
2018-03-01T14:55:21.000Z,14
2018-03-01T14:56:21.000Z,14
2018-03-01T14:57:21.000Z,14
2018-03-01T14:58:21.000Z,14
2018-03-01T14:59:21.000Z,14
2018-03-01T15:00:21.000Z,14
2018-03-01T15:01:21.000Z,14
2018-03-01T15:02:21.000Z,14
2018-03-01T15:03:21.000Z,14
2018-03-01T15:04:21.000Z,15
2018-03-01T15:05:21.000Z,15
2018-03-01T15:06:21.000Z,15
2018-03-01T15:07:21.000Z,15
2018-03-01T15:08:21.000Z,15
2018-03-01T15:09:21.000Z,15
2018-03-01T15:10:21.000Z,15
2018-03-01T15:11:21.000Z,15
2018-03-01T15:12:21.000Z,15
2018-03-01T15:13:21.000Z,15
2018-03-01T15:14:21.000Z,15
2018-03-01T15:15:21.000Z,15
2018-03-01T15:17:21.000Z,15
2018-03-01T15:18:21.000Z,15
2018-03-01T15:19:21.000Z,15
2018-03-01T15:20:21.000Z,15
2018-03-01T15:21:21.000Z,15
2018-03-01T15:22:21.000Z,15
2018-03-01T15:23:21.000Z,15
2018-03-01T15:24:21.000Z,15
2018-03-01T15:25:21.000Z,15
2018-03-01T15:26:21.000Z,15
2018-03-01T15:27:21.000Z,15
2018-03-01T15:28:21.000Z,15
2018-03-01T15:29:21.000Z,15
2018-03-01T15:30:21.000Z,16
2018-03-01T15:31:21.000Z,16
2018-03-01T15:32:21.000Z,16
2018-03-01T15:33:21.000Z,16
2018-03-01T15:34:21.000Z,16
2018-03-01T15:35:21.000Z,16
2018-03-01T15:36:21.000Z,16
2018-03-01T15:37:21.000Z,16
2018-03-01T15:39:21.000Z,16
2018-03-01T15:41:21.000Z,16
2018-03-01T15:42:21.000Z,16
2018-03-01T15:43:21.000Z,16